sensor_id;sensor_type;location;lat;lon;timestamp;P1;durP1;ratioP1;P2;durP2;ratioP2
39400;SDS011;54391;50.000;7.360;2022-08-01T00:01:37;4.93;;;1.08;;
39400;SDS011;54391;50.000;7.360;2022-08-01T00:04:05;1.05;;;0.85;;
39400;SDS011;54391;50.000;7.360;2022-08-01T00:06:32;3.67;;;1.15;;
39400;SDS011;54391;50.000;7.360;2022-08-01T00:08:59;2.60;;;1.30;;
39400;SDS011;54391;50.000;7.360;2022-08-01T00:11:28;4.75;;;1.10;;
39400;SDS011;54391;50.000;7.360;2022-08-01T00:13:55;2.60;;;1.35;;
39400;SDS011;54391;50.000;7.360;2022-08-01T00:16:23;1.50;;;1.00;;
39400;SDS011;54391;50.000;7.360;2022-08-01T00:18:51;5.57;;;1.60;;
39400;SDS011;54391;50.000;7.360;2022-08-01T00:21:20;1.42;;;0.93;;
39400;SDS011;54391;50.000;7.360;2022-08-01T00:23:47;1.92;;;1.10;;
39400;SDS011;54391;50.000;7.360;2022-08-01T00:26:15;2.85;;;1.23;;
39400;SDS011;54391;50.000;7.360;2022-08-01T00:28:42;2.83;;;1.60;;
39400;SDS011;54391;50.000;7.360;2022-08-01T00:31:09;1.75;;;1.13;;
39400;SDS011;54391;50.000;7.360;2022-08-01T00:33:37;2.13;;;1.48;;
39400;SDS011;54391;50.000;7.360;2022-08-01T00:36:06;2.28;;;1.45;;
39400;SDS011;54391;50.000;7.360;2022-08-01T00:38:33;5.43;;;1.40;;
39400;SDS011;54391;50.000;7.360;2022-08-01T00:41:00;1.70;;;1.20;;
39400;SDS011;54391;50.000;7.360;2022-08-01T00:43:28;2.13;;;1.10;;
39400;SDS011;54391;50.000;7.360;2022-08-01T00:45:55;2.33;;;1.42;;
39400;SDS011;54391;50.000;7.360;2022-08-01T00:48:23;3.53;;;1.45;;
39400;SDS011;54391;50.000;7.360;2022-08-01T00:50:50;2.08;;;1.10;;
39400;SDS011;54391;50.000;7.360;2022-08-01T00:53:20;3.15;;;1.30;;
39400;SDS011;54391;50.000;7.360;2022-08-01T00:55:47;2.10;;;1.40;;
39400;SDS011;54391;50.000;7.360;2022-08-01T00:58:15;2.28;;;1.20;;
39400;SDS011;54391;50.000;7.360;2022-08-01T01:00:43;2.42;;;1.25;;
39400;SDS011;54391;50.000;7.360;2022-08-01T01:03:11;1.38;;;1.08;;
39400;SDS011;54391;50.000;7.360;2022-08-01T01:05:41;1.77;;;1.23;;
39400;SDS011;54391;50.000;7.360;2022-08-01T01:08:17;4.07;;;1.40;;
39400;SDS011;54391;50.000;7.360;2022-08-01T01:10:52;1.75;;;1.17;;
39400;SDS011;54391;50.000;7.360;2022-08-01T01:13:23;2.17;;;1.20;;
39400;SDS011;54391;50.000;7.360;2022-08-01T01:15:59;2.22;;;1.00;;
39400;SDS011;54391;50.000;7.360;2022-08-01T01:18:33;1.30;;;1.00;;
39400;SDS011;54391;50.000;7.360;2022-08-01T01:21:06;1.77;;;1.25;;
39400;SDS011;54391;50.000;7.360;2022-08-01T01:23:45;2.95;;;1.55;;
39400;SDS011;54391;50.000;7.360;2022-08-01T01:26:23;3.10;;;1.40;;
39400;SDS011;54391;50.000;7.360;2022-08-01T01:29:03;1.75;;;1.02;;
39400;SDS011;54391;50.000;7.360;2022-08-01T01:31:36;3.38;;;1.52;;
39400;SDS011;54391;50.000;7.360;2022-08-01T01:34:11;3.00;;;1.47;;
39400;SDS011;54391;50.000;7.360;2022-08-01T01:36:41;2.60;;;1.40;;
39400;SDS011;54391;50.000;7.360;2022-08-01T01:39:11;2.67;;;1.63;;
39400;SDS011;54391;50.000;7.360;2022-08-01T01:41:39;2.00;;;1.10;;
39400;SDS011;54391;50.000;7.360;2022-08-01T01:44:09;2.53;;;1.20;;
39400;SDS011;54391;50.000;7.360;2022-08-01T01:46:38;1.95;;;1.02;;
39400;SDS011;54391;50.000;7.360;2022-08-01T01:49:07;1.42;;;1.20;;
39400;SDS011;54391;50.000;7.360;2022-08-01T01:51:36;1.75;;;1.20;;
39400;SDS011;54391;50.000;7.360;2022-08-01T01:54:06;1.50;;;1.10;;
39400;SDS011;54391;50.000;7.360;2022-08-01T01:56:36;1.77;;;1.10;;
39400;SDS011;54391;50.000;7.360;2022-08-01T01:59:15;1.83;;;1.20;;
39400;SDS011;54391;50.000;7.360;2022-08-01T02:01:46;3.08;;;1.50;;
39400;SDS011;54391;50.000;7.360;2022-08-01T02:04:16;2.33;;;1.13;;
39400;SDS011;54391;50.000;7.360;2022-08-01T02:06:44;1.85;;;1.20;;
39400;SDS011;54391;50.000;7.360;2022-08-01T02:09:14;3.65;;;1.27;;
39400;SDS011;54391;50.000;7.360;2022-08-01T02:11:44;4.20;;;1.40;;
39400;SDS011;54391;50.000;7.360;2022-08-01T02:14:12;1.95;;;1.17;;
39400;SDS011;54391;50.000;7.360;2022-08-01T02:16:45;3.58;;;1.35;;
39400;SDS011;54391;50.000;7.360;2022-08-01T02:19:15;2.15;;;1.50;;
39400;SDS011;54391;50.000;7.360;2022-08-01T02:21:46;3.47;;;1.42;;
39400;SDS011;54391;50.000;7.360;2022-08-01T02:24:17;2.90;;;1.30;;
39400;SDS011;54391;50.000;7.360;2022-08-01T02:26:49;2.25;;;1.38;;
39400;SDS011;54391;50.000;7.360;2022-08-01T02:29:21;1.60;;;1.30;;
39400;SDS011;54391;50.000;7.360;2022-08-01T02:31:54;3.65;;;1.20;;
39400;SDS011;54391;50.000;7.360;2022-08-01T02:34:22;1.52;;;1.20;;
39400;SDS011;54391;50.000;7.360;2022-08-01T02:36:51;1.40;;;1.10;;
39400;SDS011;54391;50.000;7.360;2022-08-01T02:39:21;2.97;;;1.52;;
39400;SDS011;54391;50.000;7.360;2022-08-01T02:41:55;2.33;;;1.30;;
39400;SDS011;54391;50.000;7.360;2022-08-01T02:44:28;2.05;;;1.45;;
39400;SDS011;54391;50.000;7.360;2022-08-01T02:47:01;2.47;;;1.50;;
39400;SDS011;54391;50.000;7.360;2022-08-01T02:49:31;2.95;;;1.40;;
39400;SDS011;54391;50.000;7.360;2022-08-01T02:52:00;2.67;;;1.60;;
39400;SDS011;54391;50.000;7.360;2022-08-01T02:54:31;2.20;;;1.35;;
39400;SDS011;54391;50.000;7.360;2022-08-01T02:57:01;5.40;;;1.67;;
39400;SDS011;54391;50.000;7.360;2022-08-01T02:59:32;3.22;;;1.75;;
39400;SDS011;54391;50.000;7.360;2022-08-01T03:02:04;2.83;;;1.77;;
39400;SDS011;54391;50.000;7.360;2022-08-01T03:04:33;2.25;;;1.40;;
39400;SDS011;54391;50.000;7.360;2022-08-01T03:07:03;3.25;;;1.30;;
39400;SDS011;54391;50.000;7.360;2022-08-01T03:09:33;3.80;;;1.50;;
39400;SDS011;54391;50.000;7.360;2022-08-01T03:12:06;1.95;;;1.40;;
39400;SDS011;54391;50.000;7.360;2022-08-01T03:14:37;3.42;;;1.35;;
39400;SDS011;54391;50.000;7.360;2022-08-01T03:17:09;2.63;;;1.30;;
39400;SDS011;54391;50.000;7.360;2022-08-01T03:19:38;2.58;;;1.13;;
39400;SDS011;54391;50.000;7.360;2022-08-01T03:22:06;2.20;;;1.10;;
39400;SDS011;54391;50.000;7.360;2022-08-01T03:24:35;2.38;;;1.42;;
39400;SDS011;54391;50.000;7.360;2022-08-01T03:27:04;3.05;;;1.30;;
39400;SDS011;54391;50.000;7.360;2022-08-01T03:29:33;1.98;;;1.15;;
39400;SDS011;54391;50.000;7.360;2022-08-01T03:32:02;4.90;;;1.10;;
39400;SDS011;54391;50.000;7.360;2022-08-01T03:34:32;6.32;;;1.45;;
39400;SDS011;54391;50.000;7.360;2022-08-01T03:37:02;3.47;;;1.13;;
39400;SDS011;54391;50.000;7.360;2022-08-01T03:39:33;1.73;;;1.20;;
39400;SDS011;54391;50.000;7.360;2022-08-01T03:42:05;4.05;;;1.50;;
39400;SDS011;54391;50.000;7.360;2022-08-01T03:44:38;2.78;;;1.42;;
39400;SDS011;54391;50.000;7.360;2022-08-01T03:47:07;2.78;;;1.35;;
39400;SDS011;54391;50.000;7.360;2022-08-01T03:49:40;1.75;;;1.20;;
39400;SDS011;54391;50.000;7.360;2022-08-01T03:52:10;2.72;;;1.30;;
39400;SDS011;54391;50.000;7.360;2022-08-01T03:54:40;2.85;;;1.40;;
39400;SDS011;54391;50.000;7.360;2022-08-01T03:57:12;2.03;;;1.27;;
39400;SDS011;54391;50.000;7.360;2022-08-01T03:59:41;3.03;;;1.20;;
39400;SDS011;54391;50.000;7.360;2022-08-01T04:02:09;1.80;;;1.13;;
39400;SDS011;54391;50.000;7.360;2022-08-01T04:04:40;2.85;;;0.80;;
39400;SDS011;54391;50.000;7.360;2022-08-01T04:07:20;2.20;;;1.20;;
39400;SDS011;54391;50.000;7.360;2022-08-01T04:09:48;3.05;;;1.30;;
39400;SDS011;54391;50.000;7.360;2022-08-01T04:12:15;2.92;;;1.33;;
39400;SDS011;54391;50.000;7.360;2022-08-01T04:14:43;1.67;;;1.00;;
39400;SDS011;54391;50.000;7.360;2022-08-01T04:17:10;1.80;;;1.10;;
39400;SDS011;54391;50.000;7.360;2022-08-01T04:19:38;1.83;;;1.00;;
39400;SDS011;54391;50.000;7.360;2022-08-01T04:22:07;2.10;;;1.25;;
39400;SDS011;54391;50.000;7.360;2022-08-01T04:24:36;2.85;;;0.98;;
39400;SDS011;54391;50.000;7.360;2022-08-01T04:27:06;2.58;;;1.30;;
39400;SDS011;54391;50.000;7.360;2022-08-01T04:29:38;2.50;;;1.10;;
39400;SDS011;54391;50.000;7.360;2022-08-01T04:32:07;1.77;;;1.20;;
39400;SDS011;54391;50.000;7.360;2022-08-01T04:34:38;2.97;;;0.95;;
39400;SDS011;54391;50.000;7.360;2022-08-01T04:37:08;2.35;;;1.10;;
39400;SDS011;54391;50.000;7.360;2022-08-01T04:39:37;2.40;;;0.93;;
39400;SDS011;54391;50.000;7.360;2022-08-01T04:42:08;2.90;;;1.35;;
39400;SDS011;54391;50.000;7.360;2022-08-01T04:44:36;2.33;;;1.05;;
39400;SDS011;54391;50.000;7.360;2022-08-01T04:47:04;2.78;;;0.80;;
39400;SDS011;54391;50.000;7.360;2022-08-01T04:49:33;1.67;;;0.80;;
39400;SDS011;54391;50.000;7.360;2022-08-01T04:52:02;2.60;;;0.90;;
39400;SDS011;54391;50.000;7.360;2022-08-01T04:54:33;1.98;;;0.90;;
39400;SDS011;54391;50.000;7.360;2022-08-01T04:57:03;1.67;;;0.90;;
39400;SDS011;54391;50.000;7.360;2022-08-01T04:59:31;1.77;;;0.75;;
39400;SDS011;54391;50.000;7.360;2022-08-01T05:02:09;1.20;;;0.80;;
39400;SDS011;54391;50.000;7.360;2022-08-01T05:04:38;1.15;;;0.90;;
39400;SDS011;54391;50.000;7.360;2022-08-01T05:07:08;1.00;;;0.70;;
39400;SDS011;54391;50.000;7.360;2022-08-01T05:09:36;2.10;;;0.95;;
39400;SDS011;54391;50.000;7.360;2022-08-01T05:12:04;1.88;;;1.30;;
39400;SDS011;54391;50.000;7.360;2022-08-01T05:14:32;3.22;;;1.05;;
39400;SDS011;54391;50.000;7.360;2022-08-01T05:17:01;1.50;;;0.70;;
39400;SDS011;54391;50.000;7.360;2022-08-01T05:19:29;5.28;;;0.80;;
39400;SDS011;54391;50.000;7.360;2022-08-01T05:21:57;1.45;;;0.80;;
39400;SDS011;54391;50.000;7.360;2022-08-01T05:24:28;2.05;;;0.73;;
39400;SDS011;54391;50.000;7.360;2022-08-01T05:26:55;1.67;;;1.00;;
39400;SDS011;54391;50.000;7.360;2022-08-01T05:29:23;1.80;;;0.80;;
39400;SDS011;54391;50.000;7.360;2022-08-01T05:31:51;2.50;;;0.80;;
39400;SDS011;54391;50.000;7.360;2022-08-01T05:34:19;0.90;;;0.70;;
39400;SDS011;54391;50.000;7.360;2022-08-01T05:36:47;2.00;;;0.88;;
39400;SDS011;54391;50.000;7.360;2022-08-01T05:39:15;1.15;;;0.75;;
39400;SDS011;54391;50.000;7.360;2022-08-01T05:41:43;3.17;;;1.00;;
39400;SDS011;54391;50.000;7.360;2022-08-01T05:44:11;2.95;;;1.02;;
39400;SDS011;54391;50.000;7.360;2022-08-01T05:46:38;1.52;;;0.88;;
39400;SDS011;54391;50.000;7.360;2022-08-01T05:49:05;2.45;;;0.90;;
39400;SDS011;54391;50.000;7.360;2022-08-01T05:51:33;1.30;;;0.90;;
39400;SDS011;54391;50.000;7.360;2022-08-01T05:54:00;1.08;;;0.80;;
39400;SDS011;54391;50.000;7.360;2022-08-01T05:56:27;5.45;;;1.10;;
39400;SDS011;54391;50.000;7.360;2022-08-01T05:58:56;2.05;;;1.13;;
39400;SDS011;54391;50.000;7.360;2022-08-01T06:01:24;1.20;;;1.10;;
39400;SDS011;54391;50.000;7.360;2022-08-01T06:03:51;2.25;;;1.10;;
39400;SDS011;54391;50.000;7.360;2022-08-01T06:06:19;1.73;;;0.95;;
39400;SDS011;54391;50.000;7.360;2022-08-01T06:08:47;2.40;;;1.50;;
39400;SDS011;54391;50.000;7.360;2022-08-01T06:11:14;3.05;;;1.23;;
39400;SDS011;54391;50.000;7.360;2022-08-01T06:13:41;2.80;;;1.35;;
39400;SDS011;54391;50.000;7.360;2022-08-01T06:16:10;2.95;;;1.70;;
39400;SDS011;54391;50.000;7.360;2022-08-01T06:18:37;1.77;;;1.20;;
39400;SDS011;54391;50.000;7.360;2022-08-01T06:21:05;2.47;;;1.13;;
39400;SDS011;54391;50.000;7.360;2022-08-01T06:23:32;1.95;;;1.33;;
39400;SDS011;54391;50.000;7.360;2022-08-01T06:25:59;2.33;;;1.17;;
39400;SDS011;54391;50.000;7.360;2022-08-01T06:28:29;2.22;;;1.30;;
39400;SDS011;54391;50.000;7.360;2022-08-01T06:30:56;3.58;;;1.05;;
39400;SDS011;54391;50.000;7.360;2022-08-01T06:33:26;2.38;;;1.58;;
39400;SDS011;54391;50.000;7.360;2022-08-01T06:35:54;3.65;;;1.42;;
39400;SDS011;54391;50.000;7.360;2022-08-01T06:38:21;1.67;;;1.13;;
39400;SDS011;54391;50.000;7.360;2022-08-01T06:40:49;1.95;;;1.08;;
39400;SDS011;54391;50.000;7.360;2022-08-01T06:43:17;1.95;;;1.08;;
39400;SDS011;54391;50.000;7.360;2022-08-01T06:45:44;1.65;;;1.20;;
39400;SDS011;54391;50.000;7.360;2022-08-01T06:48:12;2.30;;;1.17;;
39400;SDS011;54391;50.000;7.360;2022-08-01T06:50:41;2.83;;;1.30;;
39400;SDS011;54391;50.000;7.360;2022-08-01T06:53:08;1.48;;;1.15;;
39400;SDS011;54391;50.000;7.360;2022-08-01T06:55:36;2.95;;;1.50;;
39400;SDS011;54391;50.000;7.360;2022-08-01T06:58:04;1.83;;;1.17;;
39400;SDS011;54391;50.000;7.360;2022-08-01T07:00:31;1.80;;;1.20;;
39400;SDS011;54391;50.000;7.360;2022-08-01T07:02:58;2.00;;;1.30;;
39400;SDS011;54391;50.000;7.360;2022-08-01T07:05:27;2.45;;;1.10;;
39400;SDS011;54391;50.000;7.360;2022-08-01T07:07:57;3.58;;;1.52;;
39400;SDS011;54391;50.000;7.360;2022-08-01T07:10:25;1.85;;;1.45;;
39400;SDS011;54391;50.000;7.360;2022-08-01T07:12:52;2.13;;;1.30;;
39400;SDS011;54391;50.000;7.360;2022-08-01T07:15:20;3.20;;;1.35;;
39400;SDS011;54391;50.000;7.360;2022-08-01T07:17:51;3.03;;;1.30;;
39400;SDS011;54391;50.000;7.360;2022-08-01T07:20:19;3.22;;;1.45;;
39400;SDS011;54391;50.000;7.360;2022-08-01T07:22:46;3.35;;;1.73;;
39400;SDS011;54391;50.000;7.360;2022-08-01T07:25:15;5.35;;;1.60;;
39400;SDS011;54391;50.000;7.360;2022-08-01T07:27:42;2.30;;;1.75;;
39400;SDS011;54391;50.000;7.360;2022-08-01T07:30:10;3.25;;;1.58;;
39400;SDS011;54391;50.000;7.360;2022-08-01T07:32:38;1.70;;;1.50;;
39400;SDS011;54391;50.000;7.360;2022-08-01T07:35:06;2.90;;;1.85;;
39400;SDS011;54391;50.000;7.360;2022-08-01T07:37:34;3.63;;;2.22;;
39400;SDS011;54391;50.000;7.360;2022-08-01T07:40:01;3.63;;;1.75;;
39400;SDS011;54391;50.000;7.360;2022-08-01T07:42:31;2.58;;;2.00;;
39400;SDS011;54391;50.000;7.360;2022-08-01T07:44:59;2.22;;;1.80;;
39400;SDS011;54391;50.000;7.360;2022-08-01T07:47:26;2.60;;;1.63;;
39400;SDS011;54391;50.000;7.360;2022-08-01T07:49:58;2.15;;;1.77;;
39400;SDS011;54391;50.000;7.360;2022-08-01T07:52:28;3.05;;;1.67;;
39400;SDS011;54391;50.000;7.360;2022-08-01T07:54:56;1.85;;;1.60;;
39400;SDS011;54391;50.000;7.360;2022-08-01T07:57:24;2.50;;;1.85;;
39400;SDS011;54391;50.000;7.360;2022-08-01T07:59:53;1.98;;;1.77;;
39400;SDS011;54391;50.000;7.360;2022-08-01T08:02:21;2.90;;;2.50;;
39400;SDS011;54391;50.000;7.360;2022-08-01T08:04:48;2.10;;;1.73;;
39400;SDS011;54391;50.000;7.360;2022-08-01T08:07:15;3.03;;;1.70;;
39400;SDS011;54391;50.000;7.360;2022-08-01T08:09:43;4.15;;;1.73;;
39400;SDS011;54391;50.000;7.360;2022-08-01T08:12:10;3.40;;;2.25;;
39400;SDS011;54391;50.000;7.360;2022-08-01T08:14:38;2.63;;;1.90;;
39400;SDS011;54391;50.000;7.360;2022-08-01T08:17:07;2.88;;;2.00;;
39400;SDS011;54391;50.000;7.360;2022-08-01T08:19:34;2.72;;;1.98;;
39400;SDS011;54391;50.000;7.360;2022-08-01T08:22:04;2.40;;;2.10;;
39400;SDS011;54391;50.000;7.360;2022-08-01T08:24:31;2.22;;;1.90;;
39400;SDS011;54391;50.000;7.360;2022-08-01T08:26:59;2.55;;;1.95;;
39400;SDS011;54391;50.000;7.360;2022-08-01T08:29:29;2.88;;;2.17;;
39400;SDS011;54391;50.000;7.360;2022-08-01T08:31:59;2.45;;;2.03;;
39400;SDS011;54391;50.000;7.360;2022-08-01T08:34:30;2.65;;;2.10;;
39400;SDS011;54391;50.000;7.360;2022-08-01T08:36:57;1.90;;;1.67;;
39400;SDS011;54391;50.000;7.360;2022-08-01T08:39:25;3.15;;;1.90;;
39400;SDS011;54391;50.000;7.360;2022-08-01T08:41:55;2.88;;;1.92;;
39400;SDS011;54391;50.000;7.360;2022-08-01T08:44:24;3.78;;;2.08;;
39400;SDS011;54391;50.000;7.360;2022-08-01T08:46:51;3.05;;;2.00;;
39400;SDS011;54391;50.000;7.360;2022-08-01T08:49:22;2.47;;;1.92;;
39400;SDS011;54391;50.000;7.360;2022-08-01T08:51:53;3.05;;;1.77;;
39400;SDS011;54391;50.000;7.360;2022-08-01T08:54:24;3.33;;;1.95;;
39400;SDS011;54391;50.000;7.360;2022-08-01T08:56:53;3.35;;;1.60;;
39400;SDS011;54391;50.000;7.360;2022-08-01T08:59:21;2.53;;;1.60;;
39400;SDS011;54391;50.000;7.360;2022-08-01T09:01:49;2.20;;;1.80;;
39400;SDS011;54391;50.000;7.360;2022-08-01T09:04:17;3.35;;;1.90;;
39400;SDS011;54391;50.000;7.360;2022-08-01T09:06:45;2.05;;;1.67;;
39400;SDS011;54391;50.000;7.360;2022-08-01T09:09:13;3.58;;;1.85;;
39400;SDS011;54391;50.000;7.360;2022-08-01T09:11:41;3.42;;;1.70;;
39400;SDS011;54391;50.000;7.360;2022-08-01T09:14:08;2.33;;;1.50;;
39400;SDS011;54391;50.000;7.360;2022-08-01T09:16:38;2.55;;;1.60;;
39400;SDS011;54391;50.000;7.360;2022-08-01T09:19:11;1.67;;;1.58;;
39400;SDS011;54391;50.000;7.360;2022-08-01T09:21:40;2.50;;;1.83;;
39400;SDS011;54391;50.000;7.360;2022-08-01T09:24:24;3.83;;;1.90;;
39400;SDS011;54391;50.000;7.360;2022-08-01T09:26:52;2.78;;;1.65;;
39400;SDS011;54391;50.000;7.360;2022-08-01T09:29:20;3.72;;;1.90;;
39400;SDS011;54391;50.000;7.360;2022-08-01T09:31:49;4.78;;;2.15;;
39400;SDS011;54391;50.000;7.360;2022-08-01T09:34:23;2.92;;;2.15;;
39400;SDS011;54391;50.000;7.360;2022-08-01T09:36:52;3.35;;;2.00;;
39400;SDS011;54391;50.000;7.360;2022-08-01T09:39:23;9.30;;;6.35;;
39400;SDS011;54391;50.000;7.360;2022-08-01T09:41:52;2.47;;;1.83;;
39400;SDS011;54391;50.000;7.360;2022-08-01T09:44:28;3.97;;;1.80;;
39400;SDS011;54391;50.000;7.360;2022-08-01T09:47:04;2.92;;;1.60;;
39400;SDS011;54391;50.000;7.360;2022-08-01T09:49:32;3.78;;;1.63;;
39400;SDS011;54391;50.000;7.360;2022-08-01T09:52:09;1.77;;;1.38;;
39400;SDS011;54391;50.000;7.360;2022-08-01T09:54:40;2.78;;;1.60;;
39400;SDS011;54391;50.000;7.360;2022-08-01T09:57:10;2.55;;;1.60;;
39400;SDS011;54391;50.000;7.360;2022-08-01T09:59:40;2.10;;;1.58;;
39400;SDS011;54391;50.000;7.360;2022-08-01T10:02:09;1.85;;;1.30;;
39400;SDS011;54391;50.000;7.360;2022-08-01T10:04:48;2.38;;;1.20;;
39400;SDS011;54391;50.000;7.360;2022-08-01T10:07:17;3.10;;;1.50;;
39400;SDS011;54391;50.000;7.360;2022-08-01T10:09:46;2.47;;;1.40;;
39400;SDS011;54391;50.000;7.360;2022-08-01T10:12:14;3.10;;;1.50;;
39400;SDS011;54391;50.000;7.360;2022-08-01T10:14:44;2.55;;;1.50;;
39400;SDS011;54391;50.000;7.360;2022-08-01T10:17:13;7.07;;;3.33;;
39400;SDS011;54391;50.000;7.360;2022-08-01T10:19:42;3.97;;;2.33;;
39400;SDS011;54391;50.000;7.360;2022-08-01T10:22:10;3.05;;;1.70;;
39400;SDS011;54391;50.000;7.360;2022-08-01T10:24:43;2.83;;;1.65;;
39400;SDS011;54391;50.000;7.360;2022-08-01T10:27:13;3.15;;;1.60;;
39400;SDS011;54391;50.000;7.360;2022-08-01T10:29:43;2.75;;;1.67;;
39400;SDS011;54391;50.000;7.360;2022-08-01T10:32:16;2.15;;;1.42;;
39400;SDS011;54391;50.000;7.360;2022-08-01T10:34:44;4.53;;;1.70;;
39400;SDS011;54391;50.000;7.360;2022-08-01T10:37:13;2.33;;;1.30;;
39400;SDS011;54391;50.000;7.360;2022-08-01T10:39:42;1.80;;;1.40;;
39400;SDS011;54391;50.000;7.360;2022-08-01T10:42:10;1.88;;;1.40;;
39400;SDS011;54391;50.000;7.360;2022-08-01T10:44:39;3.95;;;1.92;;
39400;SDS011;54391;50.000;7.360;2022-08-01T10:47:08;3.63;;;1.75;;
39400;SDS011;54391;50.000;7.360;2022-08-01T10:49:39;1.55;;;1.40;;
39400;SDS011;54391;50.000;7.360;2022-08-01T10:52:15;5.95;;;2.13;;
39400;SDS011;54391;50.000;7.360;2022-08-01T10:54:43;5.88;;;3.35;;
39400;SDS011;54391;50.000;7.360;2022-08-01T10:57:12;2.35;;;1.58;;
39400;SDS011;54391;50.000;7.360;2022-08-01T10:59:47;2.85;;;1.20;;
39400;SDS011;54391;50.000;7.360;2022-08-01T11:02:25;3.42;;;2.10;;
39400;SDS011;54391;50.000;7.360;2022-08-01T11:04:55;1.50;;;1.33;;
39400;SDS011;54391;50.000;7.360;2022-08-01T11:10:16;2.50;;;1.45;;
39400;SDS011;54391;50.000;7.360;2022-08-01T11:12:51;3.03;;;1.30;;
39400;SDS011;54391;50.000;7.360;2022-08-01T11:15:19;3.58;;;2.05;;
39400;SDS011;54391;50.000;7.360;2022-08-01T11:17:51;1.25;;;1.05;;
39400;SDS011;54391;50.000;7.360;2022-08-01T11:20:20;1.50;;;1.20;;
39400;SDS011;54391;50.000;7.360;2022-08-01T11:26:09;1.15;;;1.08;;
39400;SDS011;54391;50.000;7.360;2022-08-01T11:28:40;2.08;;;1.15;;
39400;SDS011;54391;50.000;7.360;2022-08-01T11:31:29;1.40;;;1.30;;
39400;SDS011;54391;50.000;7.360;2022-08-01T11:33:59;1.75;;;1.13;;
39400;SDS011;54391;50.000;7.360;2022-08-01T11:36:28;1.17;;;1.08;;
39400;SDS011;54391;50.000;7.360;2022-08-01T11:39:12;2.17;;;1.17;;
39400;SDS011;54391;50.000;7.360;2022-08-01T11:41:41;5.45;;;1.77;;
39400;SDS011;54391;50.000;7.360;2022-08-01T11:44:11;1.50;;;1.23;;
39400;SDS011;54391;50.000;7.360;2022-08-01T11:46:51;5.55;;;4.93;;
39400;SDS011;54391;50.000;7.360;2022-08-01T11:49:24;3.08;;;1.48;;
39400;SDS011;54391;50.000;7.360;2022-08-01T11:51:58;2.05;;;1.65;;
39400;SDS011;54391;50.000;7.360;2022-08-01T11:54:30;3.58;;;1.35;;
39400;SDS011;54391;50.000;7.360;2022-08-01T11:56:59;3.03;;;1.30;;
39400;SDS011;54391;50.000;7.360;2022-08-01T11:59:28;2.92;;;1.00;;
39400;SDS011;54391;50.000;7.360;2022-08-01T12:02:03;1.75;;;1.23;;
39400;SDS011;54391;50.000;7.360;2022-08-01T12:04:50;1.52;;;1.00;;
39400;SDS011;54391;50.000;7.360;2022-08-01T12:07:23;1.58;;;1.40;;
39400;SDS011;54391;50.000;7.360;2022-08-01T12:09:58;1.27;;;1.17;;
39400;SDS011;54391;50.000;7.360;2022-08-01T12:12:29;1.30;;;1.10;;
39400;SDS011;54391;50.000;7.360;2022-08-01T12:14:59;2.50;;;1.35;;
39400;SDS011;54391;50.000;7.360;2022-08-01T12:17:32;2.38;;;1.05;;
39400;SDS011;54391;50.000;7.360;2022-08-01T12:20:01;1.77;;;1.00;;
39400;SDS011;54391;50.000;7.360;2022-08-01T12:22:30;1.90;;;1.10;;
39400;SDS011;54391;50.000;7.360;2022-08-01T12:25:04;2.13;;;1.05;;
39400;SDS011;54391;50.000;7.360;2022-08-01T12:27:32;1.20;;;0.90;;
39400;SDS011;54391;50.000;7.360;2022-08-01T12:30:03;3.15;;;1.20;;
39400;SDS011;54391;50.000;7.360;2022-08-01T12:32:33;1.00;;;0.90;;
39400;SDS011;54391;50.000;7.360;2022-08-01T12:35:02;1.85;;;1.02;;
39400;SDS011;54391;50.000;7.360;2022-08-01T12:37:31;2.65;;;0.90;;
39400;SDS011;54391;50.000;7.360;2022-08-01T12:40:01;1.35;;;1.17;;
39400;SDS011;54391;50.000;7.360;2022-08-01T12:42:36;3.70;;;1.70;;
39400;SDS011;54391;50.000;7.360;2022-08-01T12:45:06;1.88;;;0.95;;
39400;SDS011;54391;50.000;7.360;2022-08-01T12:47:36;4.20;;;1.27;;
39400;SDS011;54391;50.000;7.360;2022-08-01T12:50:05;1.25;;;1.15;;
39400;SDS011;54391;50.000;7.360;2022-08-01T12:52:34;1.58;;;1.20;;
39400;SDS011;54391;50.000;7.360;2022-08-01T12:55:06;1.45;;;1.30;;
39400;SDS011;54391;50.000;7.360;2022-08-01T12:57:39;3.45;;;1.10;;
39400;SDS011;54391;50.000;7.360;2022-08-01T13:00:10;3.45;;;1.40;;
39400;SDS011;54391;50.000;7.360;2022-08-01T13:02:40;1.75;;;1.20;;
39400;SDS011;54391;50.000;7.360;2022-08-01T13:05:08;2.35;;;1.10;;
39400;SDS011;54391;50.000;7.360;2022-08-01T13:07:37;1.85;;;1.23;;
39400;SDS011;54391;50.000;7.360;2022-08-01T13:10:06;3.00;;;2.17;;
39400;SDS011;54391;50.000;7.360;2022-08-01T13:12:35;6.05;;;3.83;;
39400;SDS011;54391;50.000;7.360;2022-08-01T13:15:20;6.82;;;3.28;;
39400;SDS011;54391;50.000;7.360;2022-08-01T13:17:50;7.50;;;4.15;;
39400;SDS011;54391;50.000;7.360;2022-08-01T13:20:25;6.13;;;3.70;;
39400;SDS011;54391;50.000;7.360;2022-08-01T13:23:11;11.85;;;4.35;;
39400;SDS011;54391;50.000;7.360;2022-08-01T13:25:47;6.45;;;4.05;;
39400;SDS011;54391;50.000;7.360;2022-08-01T13:28:18;5.95;;;3.78;;
39400;SDS011;54391;50.000;7.360;2022-08-01T13:30:57;7.32;;;3.80;;
39400;SDS011;54391;50.000;7.360;2022-08-01T13:33:40;4.60;;;3.25;;
39400;SDS011;54391;50.000;7.360;2022-08-01T13:36:09;7.07;;;3.20;;
39400;SDS011;54391;50.000;7.360;2022-08-01T13:38:36;8.57;;;3.80;;
39400;SDS011;54391;50.000;7.360;2022-08-01T13:41:21;4.47;;;3.50;;
39400;SDS011;54391;50.000;7.360;2022-08-01T13:43:49;8.20;;;3.42;;
39400;SDS011;54391;50.000;7.360;2022-08-01T13:46:18;3.75;;;3.10;;
39400;SDS011;54391;50.000;7.360;2022-08-01T13:48:45;8.13;;;3.60;;
39400;SDS011;54391;50.000;7.360;2022-08-01T13:51:13;4.25;;;2.95;;
39400;SDS011;54391;50.000;7.360;2022-08-01T13:53:40;4.70;;;3.10;;
39400;SDS011;54391;50.000;7.360;2022-08-01T13:56:07;6.88;;;3.08;;
39400;SDS011;54391;50.000;7.360;2022-08-01T13:58:34;7.20;;;2.92;;
39400;SDS011;54391;50.000;7.360;2022-08-01T14:01:02;4.82;;;2.70;;
39400;SDS011;54391;50.000;7.360;2022-08-01T14:03:30;5.20;;;2.92;;
39400;SDS011;54391;50.000;7.360;2022-08-01T14:05:58;4.35;;;2.70;;
39400;SDS011;54391;50.000;7.360;2022-08-01T14:08:25;4.82;;;3.13;;
39400;SDS011;54391;50.000;7.360;2022-08-01T14:10:53;2.50;;;2.25;;
39400;SDS011;54391;50.000;7.360;2022-08-01T14:13:22;6.60;;;2.63;;
39400;SDS011;54391;50.000;7.360;2022-08-01T14:15:50;5.78;;;2.28;;
39400;SDS011;54391;50.000;7.360;2022-08-01T14:18:17;3.35;;;2.25;;
39400;SDS011;54391;50.000;7.360;2022-08-01T14:20:46;4.75;;;2.60;;
39400;SDS011;54391;50.000;7.360;2022-08-01T14:23:13;4.63;;;2.42;;
39400;SDS011;54391;50.000;7.360;2022-08-01T14:25:40;5.80;;;2.65;;
39400;SDS011;54391;50.000;7.360;2022-08-01T14:28:08;3.38;;;2.25;;
39400;SDS011;54391;50.000;7.360;2022-08-01T14:30:36;3.60;;;2.33;;
39400;SDS011;54391;50.000;7.360;2022-08-01T14:33:03;4.47;;;2.10;;
39400;SDS011;54391;50.000;7.360;2022-08-01T14:35:31;3.47;;;2.28;;
39400;SDS011;54391;50.000;7.360;2022-08-01T14:37:59;3.28;;;2.28;;
39400;SDS011;54391;50.000;7.360;2022-08-01T14:40:27;2.58;;;2.15;;
39400;SDS011;54391;50.000;7.360;2022-08-01T14:42:55;3.22;;;2.30;;
39400;SDS011;54391;50.000;7.360;2022-08-01T14:45:22;2.42;;;2.17;;
39400;SDS011;54391;50.000;7.360;2022-08-01T14:47:49;4.53;;;2.00;;
39400;SDS011;54391;50.000;7.360;2022-08-01T14:50:17;2.97;;;2.03;;
39400;SDS011;54391;50.000;7.360;2022-08-01T14:52:44;3.95;;;2.10;;
39400;SDS011;54391;50.000;7.360;2022-08-01T14:55:13;3.47;;;2.08;;
39400;SDS011;54391;50.000;7.360;2022-08-01T14:57:40;4.38;;;2.13;;
39400;SDS011;54391;50.000;7.360;2022-08-01T15:00:08;6.68;;;2.20;;
39400;SDS011;54391;50.000;7.360;2022-08-01T15:02:38;4.43;;;2.17;;
39400;SDS011;54391;50.000;7.360;2022-08-01T15:05:06;5.57;;;2.00;;
39400;SDS011;54391;50.000;7.360;2022-08-01T15:07:34;4.57;;;1.80;;
39400;SDS011;54391;50.000;7.360;2022-08-01T15:10:02;2.65;;;1.75;;